sensor_id;sensor_type;location;lat;lon;timestamp;temperature;humidity
44695;DHT22;32845;59.422;17.930;2023-06-01T00:00:51;12.80;99.90
44695;DHT22;32845;59.422;17.930;2023-06-01T00:05:26;12.80;99.90
44695;DHT22;32845;59.422;17.930;2023-06-01T00:09:57;12.80;99.90
44695;DHT22;32845;59.422;17.930;2023-06-01T00:14:27;12.70;99.90
44695;DHT22;32845;59.422;17.930;2023-06-01T00:18:58;12.60;99.90
44695;DHT22;32845;59.422;17.930;2023-06-01T00:23:31;12.60;99.90
44695;DHT22;32845;59.422;17.930;2023-06-01T00:28:02;12.60;99.90
44695;DHT22;32845;59.422;17.930;2023-06-01T00:32:38;12.60;99.90
44695;DHT22;32845;59.422;17.930;2023-06-01T00:37:09;12.50;99.90
44695;DHT22;32845;59.422;17.930;2023-06-01T00:41:39;12.50;99.90
44695;DHT22;32845;59.422;17.930;2023-06-01T00:46:10;12.50;99.90
44695;DHT22;32845;59.422;17.930;2023-06-01T00:50:42;12.50;99.90
44695;DHT22;32845;59.422;17.930;2023-06-01T00:55:13;12.50;99.90
44695;DHT22;32845;59.422;17.930;2023-06-01T00:59:44;12.50;99.90
44695;DHT22;32845;59.422;17.930;2023-06-01T01:04:14;12.50;99.90
44695;DHT22;32845;59.422;17.930;2023-06-01T01:09:08;12.40;99.90
44695;DHT22;32845;59.422;17.930;2023-06-01T01:13:48;12.40;99.90
44695;DHT22;32845;59.422;17.930;2023-06-01T01:18:31;12.30;99.90
44695;DHT22;32845;59.422;17.930;2023-06-01T01:23:15;12.30;99.90
44695;DHT22;32845;59.422;17.930;2023-06-01T01:32:46;12.20;99.70
44695;DHT22;32845;59.422;17.930;2023-06-01T01:37:16;12.10;99.20
44695;DHT22;32845;59.422;17.930;2023-06-01T01:41:47;12.10;98.60
44695;DHT22;32845;59.422;17.930;2023-06-01T01:46:24;12.10;98.20
44695;DHT22;32845;59.422;17.930;2023-06-01T01:51:03;12.00;97.60
44695;DHT22;32845;59.422;17.930;2023-06-01T01:55:36;12.00;97.60
44695;DHT22;32845;59.422;17.930;2023-06-01T02:00:08;12.00;97.90
44695;DHT22;32845;59.422;17.930;2023-06-01T02:04:40;12.00;98.00
44695;DHT22;32845;59.422;17.930;2023-06-01T02:09:11;11.90;98.00
44695;DHT22;32845;59.422;17.930;2023-06-01T02:13:41;11.90;97.90
44695;DHT22;32845;59.422;17.930;2023-06-01T02:18:12;11.80;98.00
44695;DHT22;32845;59.422;17.930;2023-06-01T02:22:48;11.80;98.00
44695;DHT22;32845;59.422;17.930;2023-06-01T02:27:18;11.70;98.10
44695;DHT22;32845;59.422;17.930;2023-06-01T02:31:49;11.70;98.00
44695;DHT22;32845;59.422;17.930;2023-06-01T02:36:21;11.60;97.70
44695;DHT22;32845;59.422;17.930;2023-06-01T02:40:52;11.50;97.70
44695;DHT22;32845;59.422;17.930;2023-06-01T02:45:22;11.50;97.60
44695;DHT22;32845;59.422;17.930;2023-06-01T02:49:58;11.50;97.50
44695;DHT22;32845;59.422;17.930;2023-06-01T02:54:28;11.40;97.10
44695;DHT22;32845;59.422;17.930;2023-06-01T02:58:59;11.40;97.00
44695;DHT22;32845;59.422;17.930;2023-06-01T03:03:30;11.30;97.00
44695;DHT22;32845;59.422;17.930;2023-06-01T03:08:01;11.30;97.00
44695;DHT22;32845;59.422;17.930;2023-06-01T03:12:32;11.30;97.00
44695;DHT22;32845;59.422;17.930;2023-06-01T03:17:03;11.20;97.00
44695;DHT22;32845;59.422;17.930;2023-06-01T03:21:33;11.20;95.80
44695;DHT22;32845;59.422;17.930;2023-06-01T03:26:04;11.10;95.30
44695;DHT22;32845;59.422;17.930;2023-06-01T03:30:35;11.00;94.80
44695;DHT22;32845;59.422;17.930;2023-06-01T03:35:07;11.00;94.70
44695;DHT22;32845;59.422;17.930;2023-06-01T03:39:38;10.90;94.40
44695;DHT22;32845;59.422;17.930;2023-06-01T03:44:10;10.90;94.20
44695;DHT22;32845;59.422;17.930;2023-06-01T03:48:41;10.90;94.30
44695;DHT22;32845;59.422;17.930;2023-06-01T03:53:12;10.90;94.00
44695;DHT22;32845;59.422;17.930;2023-06-01T03:57:42;10.80;93.90
44695;DHT22;32845;59.422;17.930;2023-06-01T04:02:13;10.80;94.00
44695;DHT22;32845;59.422;17.930;2023-06-01T04:06:43;10.80;94.10
44695;DHT22;32845;59.422;17.930;2023-06-01T04:11:16;10.80;93.40
44695;DHT22;32845;59.422;17.930;2023-06-01T04:15:47;10.80;93.40
44695;DHT22;32845;59.422;17.930;2023-06-01T04:20:18;10.70;93.20
44695;DHT22;32845;59.422;17.930;2023-06-01T04:24:48;10.60;93.30
44695;DHT22;32845;59.422;17.930;2023-06-01T04:29:19;10.50;93.30
44695;DHT22;32845;59.422;17.930;2023-06-01T04:33:50;10.40;93.40
44695;DHT22;32845;59.422;17.930;2023-06-01T04:38:23;10.40;93.50
44695;DHT22;32845;59.422;17.930;2023-06-01T04:42:55;10.40;93.40
44695;DHT22;32845;59.422;17.930;2023-06-01T04:47:27;10.40;93.50
44695;DHT22;32845;59.422;17.930;2023-06-01T04:51:58;10.40;93.50
44695;DHT22;32845;59.422;17.930;2023-06-01T04:56:30;10.40;93.60
44695;DHT22;32845;59.422;17.930;2023-06-01T05:01:02;10.40;93.60
44695;DHT22;32845;59.422;17.930;2023-06-01T05:05:32;10.40;93.60
44695;DHT22;32845;59.422;17.930;2023-06-01T05:10:04;10.50;93.30
44695;DHT22;32845;59.422;17.930;2023-06-01T05:14:36;10.40;93.30
44695;DHT22;32845;59.422;17.930;2023-06-01T05:19:06;10.50;93.40
44695;DHT22;32845;59.422;17.930;2023-06-01T05:23:37;10.40;93.40
44695;DHT22;32845;59.422;17.930;2023-06-01T05:28:08;10.40;93.60
44695;DHT22;32845;59.422;17.930;2023-06-01T05:32:38;10.50;93.70
44695;DHT22;32845;59.422;17.930;2023-06-01T05:37:09;10.60;93.70
44695;DHT22;32845;59.422;17.930;2023-06-01T05:41:41;10.70;93.70
44695;DHT22;32845;59.422;17.930;2023-06-01T05:46:11;10.70;93.20
44695;DHT22;32845;59.422;17.930;2023-06-01T05:50:42;10.70;93.00
44695;DHT22;32845;59.422;17.930;2023-06-01T05:55:13;10.70;93.00
44695;DHT22;32845;59.422;17.930;2023-06-01T05:59:43;10.80;93.00
44695;DHT22;32845;59.422;17.930;2023-06-01T06:04:16;10.80;92.90
44695;DHT22;32845;59.422;17.930;2023-06-01T06:08:46;10.80;92.90
44695;DHT22;32845;59.422;17.930;2023-06-01T06:13:22;10.90;92.80
44695;DHT22;32845;59.422;17.930;2023-06-01T06:17:52;10.90;91.60
44695;DHT22;32845;59.422;17.930;2023-06-01T06:22:23;10.80;91.30
44695;DHT22;32845;59.422;17.930;2023-06-01T06:26:54;10.80;91.30
44695;DHT22;32845;59.422;17.930;2023-06-01T06:31:24;10.90;91.30
44695;DHT22;32845;59.422;17.930;2023-06-01T06:35:55;11.00;91.10
44695;DHT22;32845;59.422;17.930;2023-06-01T06:40:26;11.10;90.60
44695;DHT22;32845;59.422;17.930;2023-06-01T06:44:56;11.10;90.60
44695;DHT22;32845;59.422;17.930;2023-06-01T06:49:27;11.20;90.70
44695;DHT22;32845;59.422;17.930;2023-06-01T06:53:58;11.30;90.40
44695;DHT22;32845;59.422;17.930;2023-06-01T06:58:33;11.30;90.00
44695;DHT22;32845;59.422;17.930;2023-06-01T07:03:04;11.40;90.00
44695;DHT22;32845;59.422;17.930;2023-06-01T07:07:35;11.40;90.20
44695;DHT22;32845;59.422;17.930;2023-06-01T07:12:06;11.40;89.40
44695;DHT22;32845;59.422;17.930;2023-06-01T07:16:37;11.50;90.10
44695;DHT22;32845;59.422;17.930;2023-06-01T07:21:08;11.60;88.80
44695;DHT22;32845;59.422;17.930;2023-06-01T07:25:39;11.70;89.00
44695;DHT22;32845;59.422;17.930;2023-06-01T07:30:10;11.80;87.80
44695;DHT22;32845;59.422;17.930;2023-06-01T07:34:40;11.80;88.50
44695;DHT22;32845;59.422;17.930;2023-06-01T07:39:11;11.90;87.90
44695;DHT22;32845;59.422;17.930;2023-06-01T07:43:47;11.90;87.30
44695;DHT22;32845;59.422;17.930;2023-06-01T07:48:17;11.90;86.60
44695;DHT22;32845;59.422;17.930;2023-06-01T07:52:48;11.90;86.40
44695;DHT22;32845;59.422;17.930;2023-06-01T07:57:19;11.90;86.20
44695;DHT22;32845;59.422;17.930;2023-06-01T08:01:50;12.00;85.70
44695;DHT22;32845;59.422;17.930;2023-06-01T08:06:22;12.10;85.20
44695;DHT22;32845;59.422;17.930;2023-06-01T08:10:54;12.10;83.30
44695;DHT22;32845;59.422;17.930;2023-06-01T08:15:24;12.00;83.20
44695;DHT22;32845;59.422;17.930;2023-06-01T08:19:56;12.00;81.30
44695;DHT22;32845;59.422;17.930;2023-06-01T08:24:27;12.10;81.70
44695;DHT22;32845;59.422;17.930;2023-06-01T08:28:58;12.20;82.10
44695;DHT22;32845;59.422;17.930;2023-06-01T08:33:29;12.30;80.70
44695;DHT22;32845;59.422;17.930;2023-06-01T08:38:00;12.30;80.10
44695;DHT22;32845;59.422;17.930;2023-06-01T08:42:53;12.50;81.00
44695;DHT22;32845;59.422;17.930;2023-06-01T08:47:28;12.70;80.40
44695;DHT22;32845;59.422;17.930;2023-06-01T08:52:01;12.70;79.60
44695;DHT22;32845;59.422;17.930;2023-06-01T08:56:33;12.80;79.70
44695;DHT22;32845;59.422;17.930;2023-06-01T09:01:03;12.90;79.60
44695;DHT22;32845;59.422;17.930;2023-06-01T09:05:34;12.90;78.30
44695;DHT22;32845;59.422;17.930;2023-06-01T09:10:05;12.80;78.40
44695;DHT22;32845;59.422;17.930;2023-06-01T09:14:36;12.90;80.00
44695;DHT22;32845;59.422;17.930;2023-06-01T09:19:07;13.00;78.50
44695;DHT22;32845;59.422;17.930;2023-06-01T09:23:39;13.00;78.80
44695;DHT22;32845;59.422;17.930;2023-06-01T09:28:11;13.20;78.70
44695;DHT22;32845;59.422;17.930;2023-06-01T09:32:42;13.40;78.00
44695;DHT22;32845;59.422;17.930;2023-06-01T09:37:15;13.50;77.10
44695;DHT22;32845;59.422;17.930;2023-06-01T09:41:58;13.50;77.10
44695;DHT22;32845;59.422;17.930;2023-06-01T09:46:50;13.70;77.10
44695;DHT22;32845;59.422;17.930;2023-06-01T09:51:25;13.70;75.20
44695;DHT22;32845;59.422;17.930;2023-06-01T09:56:00;13.70;75.20
44695;DHT22;32845;59.422;17.930;2023-06-01T10:00:31;13.70;76.30
44695;DHT22;32845;59.422;17.930;2023-06-01T10:05:04;13.90;76.60
44695;DHT22;32845;59.422;17.930;2023-06-01T10:09:36;14.10;75.70
44695;DHT22;32845;59.422;17.930;2023-06-01T10:14:10;14.10;73.90
44695;DHT22;32845;59.422;17.930;2023-06-01T10:18:41;14.00;73.70
44695;DHT22;32845;59.422;17.930;2023-06-01T10:23:12;14.00;73.20
44695;DHT22;32845;59.422;17.930;2023-06-01T10:27:55;14.20;74.70
44695;DHT22;32845;59.422;17.930;2023-06-01T10:41:38;14.70;73.80
44695;DHT22;32845;59.422;17.930;2023-06-01T10:51:18;14.70;70.60
44695;DHT22;32845;59.422;17.930;2023-06-01T10:56:19;14.70;70.60
44695;DHT22;32845;59.422;17.930;2023-06-01T11:00:54;14.80;71.00
44695;DHT22;32845;59.422;17.930;2023-06-01T11:15:28;15.10;70.10
44695;DHT22;32845;59.422;17.930;2023-06-01T11:20:00;15.20;71.30
44695;DHT22;32845;59.422;17.930;2023-06-01T11:24:33;15.30;71.90
44695;DHT22;32845;59.422;17.930;2023-06-01T11:29:09;15.50;71.00
44695;DHT22;32845;59.422;17.930;2023-06-01T11:33:40;15.60;70.30
44695;DHT22;32845;59.422;17.930;2023-06-01T11:38:11;15.80;70.50
44695;DHT22;32845;59.422;17.930;2023-06-01T11:42:42;16.00;69.10
44695;DHT22;32845;59.422;17.930;2023-06-01T11:47:13;16.30;68.60
44695;DHT22;32845;59.422;17.930;2023-06-01T11:51:43;16.50;67.20
44695;DHT22;32845;59.422;17.930;2023-06-01T11:56:14;16.60;67.10
44695;DHT22;32845;59.422;17.930;2023-06-01T12:00:44;16.80;66.60
44695;DHT22;32845;59.422;17.930;2023-06-01T12:05:16;16.90;66.80
44695;DHT22;32845;59.422;17.930;2023-06-01T12:09:47;16.70;66.30
44695;DHT22;32845;59.422;17.930;2023-06-01T12:14:18;16.60;67.00
44695;DHT22;32845;59.422;17.930;2023-06-01T12:18:49;16.60;66.90
44695;DHT22;32845;59.422;17.930;2023-06-01T12:23:20;16.80;65.80
44695;DHT22;32845;59.422;17.930;2023-06-01T12:28:07;16.80;65.80
44695;DHT22;32845;59.422;17.930;2023-06-01T12:32:38;16.80;64.90
44695;DHT22;32845;59.422;17.930;2023-06-01T12:37:18;17.10;66.40
44695;DHT22;32845;59.422;17.930;2023-06-01T12:41:49;17.40;64.60
44695;DHT22;32845;59.422;17.930;2023-06-01T12:46:26;17.70;63.80
44695;DHT22;32845;59.422;17.930;2023-06-01T12:50:56;17.30;62.60
44695;DHT22;32845;59.422;17.930;2023-06-01T12:55:28;17.00;63.10
44695;DHT22;32845;59.422;17.930;2023-06-01T12:59:58;17.00;64.00
44695;DHT22;32845;59.422;17.930;2023-06-01T13:04:29;17.00;63.70
44695;DHT22;32845;59.422;17.930;2023-06-01T13:09:01;16.90;62.50
44695;DHT22;32845;59.422;17.930;2023-06-01T13:13:31;16.80;62.50
44695;DHT22;32845;59.422;17.930;2023-06-01T13:18:02;16.70;62.90
44695;DHT22;32845;59.422;17.930;2023-06-01T13:22:34;16.70;62.30
44695;DHT22;32845;59.422;17.930;2023-06-01T13:27:04;16.70;62.10
44695;DHT22;32845;59.422;17.930;2023-06-01T13:31:35;16.80;62.30
44695;DHT22;32845;59.422;17.930;2023-06-01T13:36:07;16.80;62.90
44695;DHT22;32845;59.422;17.930;2023-06-01T13:40:38;16.70;61.40
44695;DHT22;32845;59.422;17.930;2023-06-01T13:45:08;16.50;61.80
44695;DHT22;32845;59.422;17.930;2023-06-01T13:49:39;16.40;62.40
44695;DHT22;32845;59.422;17.930;2023-06-01T13:54:10;16.30;62.50
44695;DHT22;32845;59.422;17.930;2023-06-01T13:58:43;16.40;62.30
44695;DHT22;32845;59.422;17.930;2023-06-01T14:03:13;16.30;61.60
44695;DHT22;32845;59.422;17.930;2023-06-01T14:07:44;16.30;62.40
44695;DHT22;32845;59.422;17.930;2023-06-01T14:12:16;16.20;61.70
44695;DHT22;32845;59.422;17.930;2023-06-01T14:16:47;16.10;61.80
44695;DHT22;32845;59.422;17.930;2023-06-01T14:21:17;16.00;62.20
44695;DHT22;32845;59.422;17.930;2023-06-01T14:25:48;15.80;62.00
44695;DHT22;32845;59.422;17.930;2023-06-01T14:30:18;15.60;63.20
44695;DHT22;32845;59.422;17.930;2023-06-01T14:34:49;15.70;62.80
44695;DHT22;32845;59.422;17.930;2023-06-01T14:39:20;15.70;62.30
44695;DHT22;32845;59.422;17.930;2023-06-01T14:43:51;15.70;63.30
44695;DHT22;32845;59.422;17.930;2023-06-01T14:48:21;15.70;62.60
44695;DHT22;32845;59.422;17.930;2023-06-01T14:52:52;15.60;62.50
44695;DHT22;32845;59.422;17.930;2023-06-01T14:57:28;15.60;62.60
44695;DHT22;32845;59.422;17.930;2023-06-01T15:01:58;15.60;62.10
44695;DHT22;32845;59.422;17.930;2023-06-01T15:06:31;15.50;61.60
44695;DHT22;32845;59.422;17.930;2023-06-01T15:11:02;15.60;62.20
44695;DHT22;32845;59.422;17.930;2023-06-01T15:15:33;15.60;61.60
44695;DHT22;32845;59.422;17.930;2023-06-01T15:20:04;15.50;61.40
44695;DHT22;32845;59.422;17.930;2023-06-01T15:24:36;15.50;60.90
44695;DHT22;32845;59.422;17.930;2023-06-01T15:29:07;15.50;60.90
44695;DHT22;32845;59.422;17.930;2023-06-01T15:33:38;15.40;59.60
44695;DHT22;32845;59.422;17.930;2023-06-01T15:38:08;15.30;59.90
44695;DHT22;32845;59.422;17.930;2023-06-01T15:42:39;15.40;59.80
44695;DHT22;32845;59.422;17.930;2023-06-01T15:47:10;15.40;60.40
44695;DHT22;32845;59.422;17.930;2023-06-01T15:51:41;15.30;60.10
44695;DHT22;32845;59.422;17.930;2023-06-01T15:56:12;15.20;60.10
44695;DHT22;32845;59.422;17.930;2023-06-01T16:00:43;15.20;60.50
44695;DHT22;32845;59.422;17.930;2023-06-01T16:05:13;15.20;60.80
44695;DHT22;32845;59.422;17.930;2023-06-01T16:09:44;15.20;60.60
44695;DHT22;32845;59.422;17.930;2023-06-01T16:14:15;15.30;60.50
44695;DHT22;32845;59.422;17.930;2023-06-01T16:18:45;15.30;61.00
44695;DHT22;32845;59.422;17.930;2023-06-01T16:23:16;15.10;60.90
44695;DHT22;32845;59.422;17.930;2023-06-01T16:27:47;15.00;60.50
44695;DHT22;32845;59.422;17.930;2023-06-01T16:32:17;15.00;61.60
44695;DHT22;32845;59.422;17.930;2023-06-01T16:36:48;14.90;62.00
44695;DHT22;32845;59.422;17.930;2023-06-01T16:41:18;14.90;61.60
44695;DHT22;32845;59.422;17.930;2023-06-01T16:45:49;15.00;61.50
44695;DHT22;32845;59.422;17.930;2023-06-01T16:50:20;15.00;60.50
44695;DHT22;32845;59.422;17.930;2023-06-01T16:54:50;15.00;61.00
44695;DHT22;32845;59.422;17.930;2023-06-01T16:59:23;15.00;60.10
44695;DHT22;32845;59.422;17.930;2023-06-01T17:03:54;14.90;60.30
44695;DHT22;32845;59.422;17.930;2023-06-01T17:08:24;14.90;60.60
44695;DHT22;32845;59.422;17.930;2023-06-01T17:12:55;14.80;60.20
44695;DHT22;32845;59.422;17.930;2023-06-01T17:17:26;14.70;59.70
44695;DHT22;32845;59.422;17.930;2023-06-01T17:21:56;14.60;61.30
44695;DHT22;32845;59.422;17.930;2023-06-01T17:26:27;14.50;60.20
44695;DHT22;32845;59.422;17.930;2023-06-01T17:30:57;14.40;61.60
44695;DHT22;32845;59.422;17.930;2023-06-01T17:35:28;14.30;64.00
44695;DHT22;32845;59.422;17.930;2023-06-01T17:39:59;14.20;62.90
44695;DHT22;32845;59.422;17.930;2023-06-01T17:44:29;14.00;64.70
44695;DHT22;32845;59.422;17.930;2023-06-01T17:49:00;13.80;64.20
44695;DHT22;32845;59.422;17.930;2023-06-01T17:53:31;13.70;63.50
44695;DHT22;32845;59.422;17.930;2023-06-01T17:58:01;13.70;69.50
44695;DHT22;32845;59.422;17.930;2023-06-01T18:02:32;13.60;71.90
44695;DHT22;32845;59.422;17.930;2023-06-01T18:07:03;13.40;73.30
44695;DHT22;32845;59.422;17.930;2023-06-01T18:11:34;13.30;74.00
44695;DHT22;32845;59.422;17.930;2023-06-01T18:16:05;13.10;74.90
44695;DHT22;32845;59.422;17.930;2023-06-01T18:20:36;12.90;76.30
44695;DHT22;32845;59.422;17.930;2023-06-01T18:25:06;12.80;77.90
44695;DHT22;32845;59.422;17.930;2023-06-01T18:29:37;12.60;79.10
44695;DHT22;32845;59.422;17.930;2023-06-01T18:34:09;12.50;79.40
44695;DHT22;32845;59.422;17.930;2023-06-01T18:38:40;12.40;80.10
44695;DHT22;32845;59.422;17.930;2023-06-01T18:43:11;12.30;82.00
44695;DHT22;32845;59.422;17.930;2023-06-01T18:47:44;12.20;82.30
44695;DHT22;32845;59.422;17.930;2023-06-01T18:52:14;12.00;83.20
44695;DHT22;32845;59.422;17.930;2023-06-01T18:56:45;11.80;83.80
44695;DHT22;32845;59.422;17.930;2023-06-01T19:01:17;11.70;85.10
44695;DHT22;32845;59.422;17.930;2023-06-01T19:05:48;11.60;86.20
44695;DHT22;32845;59.422;17.930;2023-06-01T19:15:08;11.30;87.20
44695;DHT22;32845;59.422;17.930;2023-06-01T19:19:41;11.20;87.30
44695;DHT22;32845;59.422;17.930;2023-06-01T19:24:11;11.10;88.30
44695;DHT22;32845;59.422;17.930;2023-06-01T19:28:45;11.00;89.60
44695;DHT22;32845;59.422;17.930;2023-06-01T19:33:17;11.00;89.00
44695;DHT22;32845;59.422;17.930;2023-06-01T19:37:48;11.00;89.20
44695;DHT22;32845;59.422;17.930;2023-06-01T19:42:35;10.90;90.10
44695;DHT22;32845;59.422;17.930;2023-06-01T19:47:07;10.80;90.90
44695;DHT22;32845;59.422;17.930;2023-06-01T19:51:38;10.80;90.80
44695;DHT22;32845;59.422;17.930;2023-06-01T19:56:10;10.80;90.80
44695;DHT22;32845;59.422;17.930;2023-06-01T20:00:46;10.70;91.30
44695;DHT22;32845;59.422;17.930;2023-06-01T20:05:21;10.70;91.40
44695;DHT22;32845;59.422;17.930;2023-06-01T20:09:52;10.60;91.80
44695;DHT22;32845;59.422;17.930;2023-06-01T20:14:30;10.60;91.90
44695;DHT22;32845;59.422;17.930;2023-06-01T20:19:01;10.50;91.90
44695;DHT22;32845;59.422;17.930;2023-06-01T20:23:33;10.50;92.50
44695;DHT22;32845;59.422;17.930;2023-06-01T20:28:05;10.50;93.00
44695;DHT22;32845;59.422;17.930;2023-06-01T20:32:36;10.50;92.80
44695;DHT22;32845;59.422;17.930;2023-06-01T20:37:07;10.50;92.80
44695;DHT22;32845;59.422;17.930;2023-06-01T20:41:37;10.50;93.10
44695;DHT22;32845;59.422;17.930;2023-06-01T20:46:11;10.40;92.90
44695;DHT22;32845;59.422;17.930;2023-06-01T20:50:41;10.40;93.10
44695;DHT22;32845;59.422;17.930;2023-06-01T20:55:12;10.40;93.50
44695;DHT22;32845;59.422;17.930;2023-06-01T20:59:43;10.40;93.60
44695;DHT22;32845;59.422;17.930;2023-06-01T21:04:22;10.40;94.80
44695;DHT22;32845;59.422;17.930;2023-06-01T21:08:54;10.40;93.90
44695;DHT22;32845;59.422;17.930;2023-06-01T21:13:25;10.30;94.20
44695;DHT22;32845;59.422;17.930;2023-06-01T21:17:55;10.30;94.30
44695;DHT22;32845;59.422;17.930;2023-06-01T21:22:26;10.30;94.40
44695;DHT22;32845;59.422;17.930;2023-06-01T21:26:56;10.30;94.60
44695;DHT22;32845;59.422;17.930;2023-06-01T21:31:27;10.30;95.00
44695;DHT22;32845;59.422;17.930;2023-06-01T21:35:58;10.30;95.20
44695;DHT22;32845;59.422;17.930;2023-06-01T21:40:28;10.30;95.50
44695;DHT22;32845;59.422;17.930;2023-06-01T21:44:59;10.30;95.70
44695;DHT22;32845;59.422;17.930;2023-06-01T21:49:29;10.20;96.20
44695;DHT22;32845;59.422;17.930;2023-06-01T21:54:00;10.20;96.60
44695;DHT22;32845;59.422;17.930;2023-06-01T21:58:31;10.20;96.90
44695;DHT22;32845;59.422;17.930;2023-06-01T22:03:07;10.20;97.10
44695;DHT22;32845;59.422;17.930;2023-06-01T22:07:39;10.20;97.30
44695;DHT22;32845;59.422;17.930;2023-06-01T22:12:09;10.20;94.50
44695;DHT22;32845;59.422;17.930;2023-06-01T22:16:40;10.30;95.70
44695;DHT22;32845;59.422;17.930;2023-06-01T22:21:11;10.40;95.90
44695;DHT22;32845;59.422;17.930;2023-06-01T22:25:42;10.40;96.40
44695;DHT22;32845;59.422;17.930;2023-06-01T22:30:12;10.40;95.60
44695;DHT22;32845;59.422;17.930;2023-06-01T22:34:43;10.40;93.30
44695;DHT22;32845;59.422;17.930;2023-06-01T22:39:14;10.40;93.00
44695;DHT22;32845;59.422;17.930;2023-06-01T22:43:45;10.40;91.50
44695;DHT22;32845;59.422;17.930;2023-06-01T22:48:15;10.40;90.60
44695;DHT22;32845;59.422;17.930;2023-06-01T22:52:47;10.40;90.10
44695;DHT22;32845;59.422;17.930;2023-06-01T22:57:18;10.40;90.10
44695;DHT22;32845;59.422;17.930;2023-06-01T23:01:49;10.40;89.40
44695;DHT22;32845;59.422;17.930;2023-06-01T23:06:20;10.40;89.40
44695;DHT22;32845;59.422;17.930;2023-06-01T23:10:53;10.40;88.60
44695;DHT22;32845;59.422;17.930;2023-06-01T23:15:24;10.40;88.30
44695;DHT22;32845;59.422;17.930;2023-06-01T23:19:54;10.40;87.60
44695;DHT22;32845;59.422;17.930;2023-06-01T23:24:25;10.30;87.10
44695;DHT22;32845;59.422;17.930;2023-06-01T23:28:56;10.40;86.90
44695;DHT22;32845;59.422;17.930;2023-06-01T23:33:28;10.30;87.00
44695;DHT22;32845;59.422;17.930;2023-06-01T23:38:00;10.30;87.10
44695;DHT22;32845;59.422;17.930;2023-06-01T23:42:31;10.30;87.20
44695;DHT22;32845;59.422;17.930;2023-06-01T23:47:01;10.20;87.80
44695;DHT22;32845;59.422;17.930;2023-06-01T23:51:32;10.20;87.80
44695;DHT22;32845;59.422;17.930;2023-06-01T23:56:03;10.20;88.80
